createdAt,value
2018-01-01T00:00:21.550Z,0
2018-01-01T00:01:02.417Z,0
2018-01-01T00:01:43.483Z,0
2018-01-01T00:02:23.681Z,0
2018-01-01T00:03:04.580Z,0
2018-01-01T00:03:45.423Z,0
2018-01-01T00:04:25.649Z,0
2018-01-01T00:05:06.497Z,0
2018-01-01T00:05:47.939Z,0
2018-01-01T00:06:30.553Z,0
2018-01-01T00:07:11.269Z,0
2018-01-01T00:07:51.621Z,0
2018-01-01T00:08:32.803Z,0
2018-01-01T00:09:13.033Z,0
2018-01-01T00:09:54.641Z,0
2018-01-01T00:10:34.229Z,0
2018-01-01T00:11:15.217Z,0
2018-01-01T00:11:55.637Z,0
2018-01-01T00:12:36.417Z,0
2018-01-01T00:13:17.654Z,0
2018-01-01T00:13:58.342Z,0
2018-01-01T00:14:39.199Z,0
2018-01-01T00:15:20.171Z,0
2018-01-01T00:16:00.460Z,0
2018-01-01T00:16:40.965Z,0
2018-01-01T00:17:21.590Z,0
2018-01-01T00:18:02.404Z,0
2018-01-01T00:18:43.367Z,0
2018-01-01T00:19:23.716Z,0
2018-01-01T00:20:04.403Z,0
2018-01-01T00:20:44.880Z,0
2018-01-01T00:21:25.452Z,0
2018-01-01T00:22:05.985Z,0
2018-01-01T00:22:47.382Z,0
2018-01-01T00:23:27.439Z,0
2018-01-01T00:24:08.015Z,0
2018-01-01T00:24:48.508Z,0
2018-01-01T00:25:29.294Z,0
2018-01-01T00:27:44.665Z,0
2018-01-01T00:28:24.834Z,0
2018-01-01T00:29:05.226Z,0
2018-01-01T00:29:45.768Z,0
2018-01-01T00:30:26.331Z,0
2018-01-01T00:31:06.646Z,0
2018-01-01T00:31:47.522Z,0
2018-01-01T00:32:28.164Z,0
2018-01-01T00:33:08.630Z,0
2018-01-01T00:33:49.183Z,0
2018-01-01T00:34:29.864Z,0
2018-01-01T00:35:10.679Z,0
2018-01-01T00:35:51.128Z,0
2018-01-01T00:36:31.567Z,0
2018-01-01T00:37:12.084Z,0
2018-01-01T00:37:52.816Z,0
2018-01-01T00:38:33.252Z,0
2018-01-01T00:39:13.614Z,0
2018-01-01T00:39:54.235Z,0
2018-01-01T00:40:34.764Z,0
2018-01-01T00:41:15.269Z,0
2018-01-01T00:41:55.760Z,0
2018-01-01T00:42:36.460Z,0
2018-01-01T00:43:17.086Z,0
2018-01-01T00:43:57.519Z,0
2018-01-01T00:44:37.958Z,0
2018-01-01T00:45:18.342Z,0
2018-01-01T00:45:58.757Z,0
2018-01-01T00:46:39.428Z,0
2018-01-01T00:47:19.874Z,0
2018-01-01T00:48:00.511Z,0
2018-01-01T00:48:41.526Z,0
2018-01-01T00:49:22.561Z,0
2018-01-01T00:50:03.263Z,0
2018-01-01T00:50:43.522Z,0
2018-01-01T00:51:24.173Z,0
2018-01-01T00:52:04.740Z,0
2018-01-01T00:52:45.206Z,0
2018-01-01T00:53:25.712Z,0
2018-01-01T00:54:06.683Z,0
2018-01-01T00:54:47.046Z,0
2018-01-01T00:55:28.111Z,0
2018-01-01T00:56:08.615Z,0
2018-01-01T00:56:49.018Z,0
2018-01-01T00:57:29.730Z,0
2018-01-01T00:58:10.571Z,0
2018-01-01T00:58:51.630Z,0
2018-01-01T00:59:32.155Z,0
2018-01-01T01:00:12.594Z,0
2018-01-01T01:00:53.708Z,0
2018-01-01T01:01:34.141Z,0
2018-01-01T01:02:15.112Z,0
2018-01-01T01:02:55.589Z,0
2018-01-01T01:03:36.335Z,0
2018-01-01T01:05:54.017Z,0
2018-01-01T01:06:37.165Z,0
2018-01-01T01:07:17.811Z,0
2018-01-01T01:07:58.431Z,0
2018-01-01T01:08:38.867Z,0
2018-01-01T01:09:19.457Z,0
2018-01-01T01:10:00.383Z,0
2018-01-01T01:10:40.701Z,0
2018-01-01T01:11:21.777Z,0
2018-01-01T01:12:03.484Z,0
2018-01-01T01:12:44.637Z,0
2018-01-01T01:13:25.694Z,0
2018-01-01T01:14:06.107Z,0
2018-01-01T01:14:46.703Z,0
2018-01-01T01:15:27.250Z,0
2018-01-01T01:16:07.742Z,0
2018-01-01T01:16:48.365Z,0
2018-01-01T01:17:28.981Z,0
2018-01-01T01:18:09.451Z,0
2018-01-01T01:18:50.010Z,0
2018-01-01T01:19:30.426Z,0
2018-01-01T01:20:11.214Z,0
2018-01-01T01:20:53.389Z,0
2018-01-01T01:21:34.237Z,0
2018-01-01T01:22:14.928Z,0
2018-01-01T01:22:55.794Z,0
2018-01-01T01:23:36.599Z,0
2018-01-01T01:24:17.085Z,0
2018-01-01T01:24:57.714Z,0
2018-01-01T01:25:39.299Z,0
2018-01-01T01:26:20.028Z,0
2018-01-01T01:27:01.002Z,0
2018-01-01T01:27:41.944Z,0
2018-01-01T01:28:22.392Z,0
2018-01-01T01:29:03.047Z,0
2018-01-01T01:29:43.565Z,0
2018-01-01T01:30:24.136Z,0
2018-01-01T01:31:04.817Z,0
2018-01-01T01:31:45.367Z,0
2018-01-01T01:32:26.729Z,0
2018-01-01T01:33:07.181Z,0
2018-01-01T01:33:47.541Z,0
2018-01-01T01:34:28.321Z,0
2018-01-01T01:35:08.626Z,0
2018-01-01T01:35:49.404Z,0
2018-01-01T01:36:30.042Z,0
2018-01-01T01:37:10.351Z,0
2018-01-01T01:37:51.004Z,0
2018-01-01T01:38:32.169Z,0
2018-01-01T01:39:12.869Z,0
2018-01-01T01:39:54.252Z,0
2018-01-01T01:40:35.531Z,0
2018-01-01T01:41:17.410Z,0
2018-01-01T01:41:57.886Z,0
2018-01-01T01:42:41.815Z,0
2018-01-01T01:43:21.390Z,0
2018-01-01T01:44:02.116Z,0
2018-01-01T01:44:42.744Z,0
2018-01-01T01:45:23.520Z,0
2018-01-01T01:46:04.034Z,0
2018-01-01T01:46:45.137Z,0
2018-01-01T01:47:25.417Z,0
2018-01-01T01:48:06.091Z,0
2018-01-01T01:48:47.242Z,0
2018-01-01T01:49:28.088Z,0
2018-01-01T01:50:09.173Z,0
2018-01-01T01:50:49.501Z,0
2018-01-01T01:51:29.986Z,0
2018-01-01T01:52:10.415Z,0
2018-01-01T01:52:51.677Z,0
2018-01-01T01:56:53.613Z,0
2018-01-01T01:57:34.341Z,0
2018-01-01T01:58:14.857Z,0
2018-01-01T01:58:55.352Z,0
2018-01-01T01:59:36.035Z,0
2018-01-01T02:00:17.031Z,0
2018-01-01T02:00:57.453Z,0
2018-01-01T02:01:38.443Z,0
2018-01-01T02:03:57.925Z,0
2018-01-01T02:04:37.996Z,0
2018-01-01T02:05:19.155Z,0
2018-01-01T02:05:59.890Z,0
2018-01-01T02:06:40.741Z,0
2018-01-01T02:07:22.439Z,0
2018-01-01T02:08:02.966Z,0
2018-01-01T02:08:43.458Z,0
2018-01-01T02:09:24.135Z,0
2018-01-01T02:10:04.633Z,0
2018-01-01T02:10:45.089Z,0
2018-01-01T02:11:25.841Z,0
2018-01-01T02:12:06.276Z,0
2018-01-01T02:12:46.739Z,0
2018-01-01T02:13:27.161Z,0
2018-01-01T02:14:07.515Z,0
2018-01-01T02:14:48.214Z,0
2018-01-01T02:15:28.639Z,0
2018-01-01T02:16:08.975Z,0
2018-01-01T02:16:49.767Z,0
2018-01-01T02:17:30.652Z,0
2018-01-01T02:18:11.152Z,0
2018-01-01T02:18:51.693Z,0
2018-01-01T02:19:32.205Z,0
2018-01-01T02:20:13.109Z,0
2018-01-01T02:20:53.452Z,0
2018-01-01T02:21:33.833Z,0
2018-01-01T02:22:14.377Z,0
2018-01-01T02:22:54.904Z,0
2018-01-01T02:23:36.082Z,0
2018-01-01T02:24:16.463Z,0
2018-01-01T02:24:57.340Z,0
2018-01-01T02:25:37.833Z,0
2018-01-01T02:26:19.167Z,0
2018-01-01T02:26:59.162Z,0
2018-01-01T02:27:39.784Z,0
2018-01-01T02:28:20.347Z,0
2018-01-01T02:29:00.724Z,0
2018-01-01T02:29:41.835Z,0
2018-01-01T02:30:22.604Z,0
2018-01-01T02:31:02.990Z,0
2018-01-01T02:31:43.560Z,0
2018-01-01T02:32:24.194Z,0
2018-01-01T02:33:04.694Z,0
2018-01-01T02:33:45.452Z,0
2018-01-01T02:34:26.073Z,0
2018-01-01T02:35:06.465Z,0
2018-01-01T02:35:47.382Z,0
2018-01-01T02:36:28.095Z,0
2018-01-01T02:37:08.499Z,0
2018-01-01T02:37:48.866Z,0
2018-01-01T02:38:29.416Z,0
2018-01-01T02:39:10.043Z,0
2018-01-01T02:39:50.232Z,0
2018-01-01T02:40:30.768Z,0
2018-01-01T02:41:11.209Z,0
2018-01-01T02:41:51.960Z,0
2018-01-01T02:42:32.299Z,0
2018-01-01T02:43:13.171Z,0
2018-01-01T02:43:53.715Z,0
2018-01-01T02:44:34.294Z,0
2018-01-01T02:45:14.664Z,0
2018-01-01T02:45:55.280Z,0
2018-01-01T02:46:35.650Z,0
2018-01-01T02:47:16.192Z,0
2018-01-01T02:47:56.560Z,0
2018-01-01T02:48:37.018Z,0
2018-01-01T02:49:18.030Z,0
2018-01-01T02:49:58.753Z,0
2018-01-01T02:50:38.982Z,0
2018-01-01T02:51:19.421Z,0
2018-01-01T02:52:00.065Z,0
2018-01-01T02:52:40.504Z,0
2018-01-01T02:53:21.259Z,0
2018-01-01T02:54:01.691Z,0
2018-01-01T02:54:42.232Z,0
2018-01-01T02:55:22.683Z,0
2018-01-01T02:56:03.636Z,0
2018-01-01T02:56:43.971Z,0
2018-01-01T02:57:25.108Z,0
2018-01-01T02:58:05.087Z,0
2018-01-01T02:58:45.577Z,0
2018-01-01T02:59:26.230Z,0
2018-01-01T03:00:06.566Z,0
2018-01-01T03:00:47.046Z,0
2018-01-01T03:01:27.826Z,0
2018-01-01T03:02:08.066Z,0
2018-01-01T03:02:48.854Z,0
2018-01-01T03:03:29.571Z,0
2018-01-01T03:04:10.744Z,0
2018-01-01T03:04:51.137Z,0
2018-01-01T03:05:31.614Z,0
2018-01-01T03:06:12.144Z,0
2018-01-01T03:06:52.473Z,0
2018-01-01T03:07:32.900Z,0
2018-01-01T03:08:13.368Z,0
2018-01-01T03:08:53.895Z,0
2018-01-01T03:09:34.350Z,0
2018-01-01T03:10:14.710Z,0
2018-01-01T03:10:55.224Z,0
2018-01-01T03:11:35.892Z,0
2018-01-01T03:12:16.364Z,0
2018-01-01T03:12:57.180Z,0
2018-01-01T03:13:37.600Z,0
2018-01-01T03:14:18.248Z,0
2018-01-01T03:14:59.004Z,0
2018-01-01T03:15:39.826Z,0
2018-01-01T03:16:20.250Z,0
2018-01-01T03:17:00.631Z,0
2018-01-01T03:17:41.247Z,0
2018-01-01T03:18:21.836Z,0
2018-01-01T03:19:02.298Z,0
2018-01-01T03:19:42.732Z,0
2018-01-01T03:20:23.116Z,0
2018-01-01T03:21:03.586Z,0
2018-01-01T03:21:44.857Z,0
2018-01-01T03:22:25.502Z,0
2018-01-01T03:23:05.793Z,0
2018-01-01T03:23:46.233Z,0
2018-01-01T03:24:27.084Z,0
2018-01-01T03:25:07.808Z,0
2018-01-01T03:25:49.044Z,0
2018-01-01T03:26:29.578Z,0
2018-01-01T03:27:10.006Z,0
2018-01-01T03:27:50.682Z,0
2018-01-01T03:28:31.233Z,0
2018-01-01T03:29:11.884Z,0
2018-01-01T03:29:52.454Z,0
2018-01-01T03:30:32.807Z,0
2018-01-01T03:31:13.396Z,0
2018-01-01T03:31:54.428Z,0
2018-01-01T03:32:34.855Z,0
2018-01-01T03:33:15.277Z,0
2018-01-01T03:33:55.673Z,0
2018-01-01T03:34:36.126Z,0
2018-01-01T03:35:16.554Z,0
2018-01-01T03:35:57.217Z,0
2018-01-01T03:36:37.661Z,0
2018-01-01T03:37:18.311Z,0
2018-01-01T03:37:59.231Z,0
2018-01-01T03:38:40.234Z,0
2018-01-01T03:39:20.633Z,0
2018-01-01T03:40:01.278Z,0
2018-01-01T03:40:41.770Z,0
2018-01-01T03:41:22.734Z,0
2018-01-01T03:42:03.365Z,0
2018-01-01T03:42:43.854Z,0
2018-01-01T03:43:24.692Z,0
2018-01-01T03:44:05.119Z,0
2018-01-01T03:44:45.570Z,0
2018-01-01T03:45:26.293Z,0
2018-01-01T03:46:06.403Z,0
2018-01-01T03:48:10.423Z,0
2018-01-01T03:48:51.001Z,0
2018-01-01T03:49:31.403Z,0
2018-01-01T03:50:11.857Z,0
2018-01-01T03:50:52.362Z,0
2018-01-01T03:51:33.175Z,0
2018-01-01T03:52:13.688Z,0
2018-01-01T03:52:54.476Z,0
2018-01-01T03:53:34.942Z,0
2018-01-01T03:54:15.348Z,0
2018-01-01T03:54:56.166Z,0
2018-01-01T03:55:36.793Z,0
2018-01-01T03:56:19.234Z,0
2018-01-01T03:56:59.947Z,0
2018-01-01T03:57:40.625Z,0
2018-01-01T03:58:21.545Z,0
2018-01-01T03:59:02.867Z,0
2018-01-01T03:59:43.204Z,0
2018-01-01T04:00:23.614Z,0
2018-01-01T04:01:04.769Z,0
2018-01-01T04:01:44.918Z,0
2018-01-01T04:02:25.410Z,0
2018-01-01T04:03:06.123Z,0
2018-01-01T04:46:29.486Z,0
2018-01-01T04:47:17.722Z,0
2018-01-01T04:47:59.818Z,0
2018-01-01T04:48:42.995Z,0
2018-01-01T04:49:28.138Z,0
2018-01-01T04:50:08.627Z,0
2018-01-01T04:50:48.942Z,0
2018-01-01T04:51:31.792Z,0
2018-01-01T04:52:16.396Z,0
2018-01-01T04:53:00.065Z,0
2018-01-01T04:53:40.379Z,0
2018-01-01T04:54:22.064Z,0
2018-01-01T04:55:06.454Z,0
2018-01-01T04:55:50.726Z,0
2018-01-01T04:56:31.211Z,0
2018-01-01T04:57:11.696Z,0
2018-01-01T04:57:52.062Z,0
2018-01-01T04:58:34.295Z,0
2018-01-01T04:59:18.447Z,0
2018-01-01T05:01:32.706Z,0
2018-01-01T05:02:12.940Z,0
2018-01-01T05:02:53.655Z,0
2018-01-01T05:03:34.068Z,0
2018-01-01T05:04:14.594Z,0
2018-01-01T05:04:55.189Z,0
2018-01-01T05:05:36.198Z,0
2018-01-01T05:06:16.708Z,0
2018-01-01T05:06:57.080Z,0
2018-01-01T05:07:37.562Z,0
2018-01-01T05:08:18.249Z,0
2018-01-01T05:08:58.873Z,0
2018-01-01T05:09:39.665Z,0
2018-01-01T05:10:20.300Z,0
2018-01-01T05:11:00.669Z,0
2018-01-01T05:11:41.520Z,0
2018-01-01T05:12:22.020Z,0
2018-01-01T05:13:02.472Z,0
2018-01-01T05:13:43.084Z,0
2018-01-01T05:14:23.832Z,0
2018-01-01T05:15:04.417Z,0
2018-01-01T05:15:44.748Z,0
2018-01-01T05:16:25.561Z,0
2018-01-01T05:17:06.599Z,0
2018-01-01T05:17:47.212Z,0
2018-01-01T05:18:27.698Z,0
2018-01-01T05:19:08.201Z,0
2018-01-01T05:19:48.909Z,0
2018-01-01T05:20:29.648Z,0
2018-01-01T05:21:10.400Z,0
2018-01-01T05:21:50.856Z,0
2018-01-01T05:22:31.764Z,0
2018-01-01T05:23:12.379Z,0
2018-01-01T05:23:52.826Z,0
2018-01-01T05:24:33.224Z,0
2018-01-01T05:25:13.805Z,0
2018-01-01T05:25:54.377Z,0
2018-01-01T05:26:35.091Z,0
2018-01-01T05:27:15.591Z,0
2018-01-01T05:27:57.025Z,0
2018-01-01T05:28:37.366Z,0
2018-01-01T05:29:18.100Z,0
2018-01-01T05:29:58.721Z,0
2018-01-01T05:30:39.524Z,0
2018-01-01T05:31:20.075Z,0
2018-01-01T05:32:00.505Z,0
2018-01-01T05:32:41.275Z,0
2018-01-01T05:33:21.791Z,0
2018-01-01T05:34:02.005Z,0
2018-01-01T05:34:42.669Z,0
2018-01-01T05:35:23.089Z,0
2018-01-01T05:36:03.590Z,0
2018-01-01T05:36:44.010Z,0
2018-01-01T05:37:24.644Z,0
2018-01-01T05:38:05.637Z,0
2018-01-01T05:38:46.856Z,0
2018-01-01T05:39:27.502Z,0
2018-01-01T05:40:08.112Z,0
2018-01-01T05:40:48.825Z,0
2018-01-01T05:41:29.129Z,0
2018-01-01T05:42:09.445Z,0
2018-01-01T05:42:49.984Z,0
2018-01-01T05:43:30.701Z,0
2018-01-01T05:44:11.314Z,0
2018-01-01T05:44:52.359Z,0
2018-01-01T05:45:33.027Z,0
2018-01-01T05:46:13.403Z,0
2018-01-01T05:46:54.101Z,0
2018-01-01T05:47:34.814Z,0
2018-01-01T05:48:15.708Z,0
2018-01-01T05:48:56.411Z,0
2018-01-01T05:49:36.866Z,0
2018-01-01T05:50:17.669Z,0
2018-01-01T05:50:58.311Z,0
2018-01-01T05:51:38.747Z,0
2018-01-01T05:52:19.106Z,0
2018-01-01T05:52:59.665Z,0
2018-01-01T05:53:39.972Z,0
2018-01-01T05:54:21.050Z,0
2018-01-01T05:55:01.349Z,0
2018-01-01T05:55:42.253Z,0
2018-01-01T05:56:22.714Z,0
2018-01-01T05:57:03.056Z,0
2018-01-01T05:57:43.621Z,0
2018-01-01T05:58:24.256Z,0
2018-01-01T05:59:04.784Z,0
2018-01-01T05:59:45.381Z,0
2018-01-01T06:00:26.009Z,0
2018-01-01T06:01:06.496Z,0
2018-01-01T06:01:48.604Z,0
2018-01-01T06:02:29.551Z,0
2018-01-01T06:03:10.263Z,0
2018-01-01T06:03:50.264Z,0
2018-01-01T06:04:31.098Z,0
2018-01-01T06:05:11.717Z,0
2018-01-01T06:05:52.608Z,0
2018-01-01T06:06:33.028Z,0
2018-01-01T06:07:13.857Z,0
2018-01-01T06:07:54.157Z,0
2018-01-01T06:08:34.774Z,0
2018-01-01T06:11:10.807Z,0
2018-01-01T06:11:49.735Z,0
2018-01-01T06:12:30.238Z,0
2018-01-01T06:13:10.855Z,0
2018-01-01T06:13:51.267Z,0
2018-01-01T06:14:31.954Z,0
2018-01-01T06:15:12.620Z,0
2018-01-01T06:15:53.150Z,0
2018-01-01T06:16:33.602Z,0
2018-01-01T06:17:14.135Z,0
2018-01-01T06:20:34.495Z,0
2018-01-01T06:21:15.793Z,0
2018-01-01T06:21:56.307Z,0
2018-01-01T06:22:37.023Z,0
2018-01-01T06:23:18.299Z,0
2018-01-01T06:23:59.206Z,0
2018-01-01T06:24:40.792Z,0
2018-01-01T06:25:20.885Z,0
2018-01-01T06:26:01.583Z,0
2018-01-01T06:28:33.737Z,0
2018-01-01T06:29:13.943Z,0
2018-01-01T06:29:54.444Z,0
2018-01-01T06:30:34.892Z,0
2018-01-01T06:31:15.282Z,0
2018-01-01T06:31:56.514Z,0
2018-01-01T06:32:37.171Z,0
2018-01-01T06:33:17.897Z,0
2018-01-01T06:33:58.309Z,0
2018-01-01T06:34:38.859Z,0
2018-01-01T06:35:19.253Z,0
2018-01-01T06:35:59.899Z,0
2018-01-01T06:36:41.755Z,0
2018-01-01T06:37:22.310Z,0
2018-01-01T06:38:05.570Z,0
2018-01-01T06:38:45.793Z,0
2018-01-01T06:40:46.139Z,0
2018-01-01T06:41:28.622Z,0
2018-01-01T06:42:09.374Z,0
2018-01-01T06:42:50.156Z,0
2018-01-01T06:43:30.817Z,0
2018-01-01T06:44:11.274Z,0
2018-01-01T06:44:51.916Z,0
2018-01-01T06:45:33.189Z,0
2018-01-01T06:46:14.306Z,0
2018-01-01T06:46:55.289Z,0
2018-01-01T06:47:35.580Z,0
2018-01-01T06:48:15.973Z,0
2018-01-01T06:48:56.542Z,0
2018-01-01T06:49:36.765Z,0
2018-01-01T06:50:17.389Z,0
2018-01-01T06:50:58.162Z,0
2018-01-01T06:51:39.383Z,0
2018-01-01T06:52:20.353Z,0
2018-01-01T06:53:01.077Z,0
2018-01-01T06:53:42.304Z,0
2018-01-01T06:54:23.331Z,0
2018-01-01T06:55:04.129Z,0
2018-01-01T06:55:44.556Z,0
2018-01-01T06:56:25.248Z,0
2018-01-01T06:57:06.757Z,0
2018-01-01T06:57:47.934Z,0
2018-01-01T06:58:28.331Z,0
2018-01-01T06:59:08.710Z,0
2018-01-01T06:59:49.674Z,0
2018-01-01T07:00:30.544Z,0
2018-01-01T07:01:11.242Z,0
2018-01-01T07:01:52.325Z,0
2018-01-01T07:02:33.395Z,4
2018-01-01T07:03:14.268Z,4
2018-01-01T07:03:54.454Z,4
2018-01-01T07:04:35.087Z,0
2018-01-01T07:05:16.391Z,0
2018-01-01T07:05:56.957Z,0
2018-01-01T07:06:37.467Z,0
2018-01-01T07:07:18.361Z,0
2018-01-01T07:07:58.894Z,4
2018-01-01T07:08:39.776Z,4
2018-01-01T07:09:20.197Z,4
2018-01-01T07:10:00.549Z,4
2018-01-01T07:10:41.170Z,4
2018-01-01T07:11:21.733Z,8
2018-01-01T07:12:02.274Z,8
2018-01-01T07:12:43.533Z,4
2018-01-01T07:13:24.082Z,8
2018-01-01T07:14:04.468Z,8
2018-01-01T07:14:45.130Z,12
2018-01-01T07:15:25.753Z,12
2018-01-01T07:16:06.306Z,12
2018-01-01T07:16:47.055Z,12
2018-01-01T07:17:27.484Z,12
2018-01-01T07:18:09.030Z,16
2018-01-01T07:18:49.536Z,16
2018-01-01T07:19:30.478Z,20
2018-01-01T07:20:10.893Z,20
2018-01-01T07:20:51.366Z,24
2018-01-01T07:21:31.698Z,24
2018-01-01T07:22:12.956Z,24
2018-01-01T07:22:53.398Z,28
2018-01-01T07:23:33.594Z,28
2018-01-01T07:24:14.071Z,32
2018-01-01T07:24:55.955Z,32
2018-01-01T07:25:36.445Z,36
2018-01-01T07:26:16.971Z,32
2018-01-01T07:26:57.352Z,40
2018-01-01T07:27:37.839Z,40
2018-01-01T07:28:18.396Z,44
2018-01-01T07:28:58.866Z,48
2018-01-01T07:29:40.594Z,52
2018-01-01T07:30:21.138Z,52
2018-01-01T07:31:01.632Z,56
2018-01-01T07:31:42.236Z,60
2018-01-01T07:32:23.151Z,64
2018-01-01T07:33:04.208Z,68
2018-01-01T07:33:44.945Z,72
2018-01-01T07:34:25.574Z,76
2018-01-01T07:35:05.879Z,84
2018-01-01T07:35:46.313Z,88
2018-01-01T07:36:26.852Z,92
2018-01-01T07:37:07.591Z,96
2018-01-01T07:37:48.389Z,96
2018-01-01T07:38:28.826Z,96
2018-01-01T07:39:09.588Z,96
2018-01-01T07:39:50.323Z,92
2018-01-01T07:40:30.888Z,100
2018-01-01T07:41:11.505Z,96
2018-01-01T07:41:51.986Z,96
2018-01-01T07:42:32.379Z,96
2018-01-01T07:43:12.736Z,96
2018-01-01T07:43:54.282Z,96
2018-01-01T07:44:34.744Z,92
2018-01-01T07:45:16.943Z,92
2018-01-01T07:45:56.902Z,92
2018-01-01T07:46:37.492Z,92
2018-01-01T07:47:18.210Z,92
2018-01-01T07:48:00.161Z,96
2018-01-01T07:48:40.889Z,104
2018-01-01T07:49:21.355Z,96
2018-01-01T07:50:01.851Z,96
2018-01-01T07:50:42.261Z,100
2018-01-01T07:51:22.672Z,108
2018-01-01T07:52:03.274Z,112
2018-01-01T07:52:43.696Z,108
2018-01-01T07:53:24.308Z,120
2018-01-01T07:54:04.789Z,128
2018-01-01T07:54:45.290Z,132
2018-01-01T07:55:26.279Z,140
2018-01-01T07:56:07.150Z,144
2018-01-01T07:56:47.799Z,112
2018-01-01T07:57:28.814Z,188
2018-01-01T07:58:09.993Z,188
2018-01-01T07:58:49.719Z,192
2018-01-01T07:59:30.410Z,172
2018-01-01T08:00:11.110Z,184
2018-01-01T08:00:51.734Z,176
2018-01-01T08:01:32.612Z,176
2018-01-01T08:02:13.113Z,172
2018-01-01T08:02:53.874Z,180
2018-01-01T08:03:34.603Z,200
2018-01-01T08:04:15.270Z,216
2018-01-01T08:04:55.853Z,216
2018-01-01T08:05:36.557Z,216
2018-01-01T08:06:17.742Z,216
2018-01-01T08:06:57.796Z,212
2018-01-01T08:07:38.253Z,180
2018-01-01T08:08:18.871Z,164
2018-01-01T08:08:59.648Z,132
2018-01-01T08:09:40.235Z,104
2018-01-01T08:10:20.680Z,88
2018-01-01T08:11:01.625Z,80
2018-01-01T08:11:42.945Z,80
2018-01-01T08:12:23.294Z,80
2018-01-01T08:13:04.095Z,76
2018-01-01T08:13:44.434Z,80
2018-01-01T08:14:24.831Z,80
2018-01-01T08:15:05.848Z,96
2018-01-01T08:15:45.972Z,92
2018-01-01T08:16:26.279Z,88
2018-01-01T08:17:06.682Z,88
2018-01-01T08:17:47.194Z,88
2018-01-01T08:18:27.968Z,88
2018-01-01T08:19:09.316Z,84
2018-01-01T08:19:49.937Z,72
2018-01-01T08:20:30.715Z,64
2018-01-01T08:21:11.537Z,76
2018-01-01T08:21:51.945Z,84
2018-01-01T08:22:32.319Z,92
2018-01-01T08:23:12.806Z,88
2018-01-01T08:23:53.572Z,88
2018-01-01T08:24:34.960Z,84
2018-01-01T08:25:15.843Z,104
2018-01-01T08:25:56.326Z,120
2018-01-01T08:26:37.794Z,116
2018-01-01T08:27:18.616Z,104
2018-01-01T08:27:59.164Z,104
2018-01-01T08:28:39.394Z,96
2018-01-01T08:29:20.624Z,84
2018-01-01T08:30:00.878Z,80
2018-01-01T08:30:41.435Z,84
2018-01-01T08:31:21.714Z,76
2018-01-01T08:32:02.870Z,72
2018-01-01T08:32:43.206Z,68
2018-01-01T08:33:24.532Z,64
2018-01-01T08:34:04.969Z,56
2018-01-01T08:34:45.939Z,52
2018-01-01T08:35:26.991Z,52
2018-01-01T08:36:07.551Z,44
2018-01-01T08:36:47.930Z,44
2018-01-01T08:37:28.323Z,40
2018-01-01T08:38:08.893Z,44
2018-01-01T08:38:49.363Z,48
2018-01-01T08:39:30.183Z,56
2018-01-01T08:40:10.866Z,56
2018-01-01T08:40:51.129Z,64
2018-01-01T08:41:31.974Z,72
2018-01-01T08:42:12.665Z,84
2018-01-01T08:42:53.065Z,92
2018-01-01T08:43:33.440Z,104
2018-01-01T08:44:14.925Z,104
2018-01-01T08:44:55.474Z,116
2018-01-01T08:45:36.663Z,124
2018-01-01T08:46:17.844Z,172
2018-01-01T08:46:58.735Z,196
2018-01-01T08:47:39.421Z,188
2018-01-01T08:48:20.874Z,168
2018-01-01T08:49:02.288Z,124
2018-01-01T08:49:43.689Z,92
2018-01-01T08:50:24.926Z,76
2018-01-01T08:51:06.487Z,76
2018-01-01T08:51:47.052Z,76
2018-01-01T08:52:27.359Z,84
2018-01-01T08:53:08.136Z,92
2018-01-01T08:53:48.672Z,96
2018-01-01T08:54:29.226Z,108
2018-01-01T08:55:09.699Z,128
2018-01-01T08:55:50.059Z,148
2018-01-01T08:56:30.786Z,168
2018-01-01T08:57:11.442Z,184
2018-01-01T08:57:55.855Z,184
2018-01-01T08:58:36.672Z,208
2018-01-01T08:59:17.983Z,292
2018-01-01T08:59:58.353Z,408
2018-01-01T09:00:39.126Z,480
2018-01-01T09:01:20.387Z,512
2018-01-01T09:02:00.876Z,496
2018-01-01T09:02:41.602Z,440
2018-01-01T09:03:23.396Z,364
2018-01-01T09:04:04.062Z,324
2018-01-01T09:04:45.541Z,300
2018-01-01T09:05:26.235Z,272
2018-01-01T09:06:06.961Z,268
2018-01-01T09:06:51.012Z,248
2018-01-01T09:07:32.124Z,188
2018-01-01T09:08:14.206Z,196
2018-01-01T09:08:54.956Z,256
2018-01-01T09:09:35.379Z,292
2018-01-01T09:10:16.146Z,312
2018-01-01T09:10:58.969Z,404
2018-01-01T09:11:39.715Z,472
2018-01-01T09:12:20.822Z,496
2018-01-01T09:13:01.805Z,532
2018-01-01T09:13:42.297Z,532
2018-01-01T09:14:23.537Z,416
2018-01-01T09:15:03.954Z,372
2018-01-01T09:15:45.019Z,388
2018-01-01T09:16:25.570Z,528
2018-01-01T09:17:06.025Z,564
2018-01-01T09:17:46.541Z,524
2018-01-01T09:18:26.941Z,588
2018-01-01T09:19:07.673Z,644
2018-01-01T09:19:49.093Z,616
2018-01-01T09:20:29.443Z,664
2018-01-01T09:21:09.975Z,600
2018-01-01T09:21:50.339Z,572
2018-01-01T09:22:30.722Z,968
2018-01-01T09:23:11.373Z,832
2018-01-01T09:23:51.751Z,780
2018-01-01T09:24:32.830Z,748
2018-01-01T09:25:13.218Z,960
2018-01-01T09:25:53.586Z,700
2018-01-01T09:26:34.036Z,884
2018-01-01T09:27:15.053Z,944
2018-01-01T09:27:55.510Z,944
2018-01-01T09:28:35.853Z,948
2018-01-01T09:29:16.325Z,940
2018-01-01T09:29:56.742Z,948
2018-01-01T09:30:37.077Z,948
2018-01-01T09:31:17.777Z,948
2018-01-01T09:31:58.368Z,948
2018-01-01T09:32:38.815Z,948
2018-01-01T09:33:19.123Z,948
2018-01-01T09:34:01.899Z,944
2018-01-01T09:34:42.936Z,952
2018-01-01T09:35:23.236Z,956
2018-01-01T09:36:03.691Z,960
2018-01-01T09:36:45.232Z,976
2018-01-01T09:37:25.776Z,972
2018-01-01T09:38:06.362Z,964
2018-01-01T09:38:46.952Z,960
2018-01-01T09:39:27.190Z,964
2018-01-01T09:40:07.395Z,960
2018-01-01T09:40:49.126Z,960
2018-01-01T09:41:29.948Z,960
2018-01-01T09:42:10.702Z,956
2018-01-01T09:42:53.077Z,956
2018-01-01T09:43:33.583Z,956
2018-01-01T09:44:14.829Z,956
2018-01-01T09:44:55.213Z,956
2018-01-01T09:45:35.614Z,956
2018-01-01T09:46:16.449Z,956
2018-01-01T09:46:57.096Z,960
2018-01-01T09:47:37.588Z,968
2018-01-01T09:48:18.052Z,976
2018-01-01T09:48:58.685Z,992
2018-01-01T09:49:39.287Z,992
2018-01-01T09:50:19.872Z,992
2018-01-01T09:51:00.488Z,980
2018-01-01T09:51:41.217Z,976
2018-01-01T09:52:21.609Z,972
2018-01-01T09:53:02.201Z,960
2018-01-01T09:55:38.711Z,956
2018-01-01T09:56:18.513Z,952
2018-01-01T09:56:59.328Z,960
2018-01-01T09:57:39.797Z,956
2018-01-01T09:58:20.706Z,956
2018-01-01T09:59:01.504Z,964
2018-01-01T09:59:41.848Z,952
2018-01-01T10:00:22.433Z,952
2018-01-01T10:01:02.979Z,960
2018-01-01T10:01:44.023Z,952
2018-01-01T10:02:25.090Z,956
2018-01-01T10:03:05.865Z,956
2018-01-01T10:03:46.449Z,948
2018-01-01T10:41:42.561Z,776
2018-01-01T10:42:22.435Z,968
2018-01-01T10:43:02.938Z,964
2018-01-01T10:43:43.389Z,960
2018-01-01T10:44:24.242Z,948
2018-01-01T10:45:05.127Z,724
2018-01-01T10:45:45.641Z,948
2018-01-01T10:46:26.236Z,948
2018-01-01T10:47:06.641Z,948
2018-01-01T10:47:47.161Z,952
2018-01-01T10:48:27.755Z,948
2018-01-01T10:49:08.019Z,956
2018-01-01T10:49:48.800Z,776
2018-01-01T10:50:29.053Z,692
2018-01-01T10:51:09.454Z,716
2018-01-01T10:51:49.967Z,920
2018-01-01T10:52:30.582Z,1092
2018-01-01T10:53:11.249Z,1200
2018-01-01T10:53:51.608Z,1172
2018-01-01T10:54:32.824Z,1188
2018-01-01T10:55:13.527Z,1284
2018-01-01T10:55:54.091Z,1252
2018-01-01T10:56:34.449Z,1208
2018-01-01T10:57:15.107Z,1144
2018-01-01T10:57:55.860Z,1084
2018-01-01T10:58:36.856Z,1008
2018-01-01T10:59:17.750Z,1016
2018-01-01T10:59:58.248Z,900
2018-01-01T11:00:38.640Z,980
2018-01-01T11:01:19.196Z,988
2018-01-01T11:01:59.478Z,960
2018-01-01T11:02:40.282Z,956
2018-01-01T11:03:20.726Z,956
2018-01-01T11:04:01.342Z,952
2018-01-01T11:04:41.771Z,948
2018-01-01T11:05:22.589Z,944
2018-01-01T11:06:02.954Z,948
2018-01-01T11:06:43.613Z,948
2018-01-01T11:07:24.172Z,948
2018-01-01T11:08:04.782Z,948
2018-01-01T11:08:44.948Z,952
2018-01-01T11:09:25.944Z,952
2018-01-01T11:11:45.114Z,940
2018-01-01T11:15:20.797Z,948
2018-01-01T11:20:23.751Z,1100
2018-01-01T11:21:07.600Z,1024
2018-01-01T11:21:50.533Z,1016
2018-01-01T11:22:33.505Z,1032
2018-01-01T11:23:14.012Z,988
2018-01-01T11:23:55.090Z,1000
2018-01-01T11:24:35.466Z,980
2018-01-01T11:25:15.912Z,984
2018-01-01T11:26:00.849Z,980
2018-01-01T11:26:40.958Z,980
2018-01-01T11:27:21.360Z,984
2018-01-01T11:28:01.917Z,808
2018-01-01T11:28:45.275Z,784
2018-01-01T11:29:25.667Z,968
2018-01-01T11:30:06.204Z,996
2018-01-01T11:30:47.114Z,996
2018-01-01T11:31:30.972Z,1008
2018-01-01T11:32:11.359Z,1012
2018-01-01T11:32:52.048Z,1120
2018-01-01T11:33:36.778Z,868
2018-01-01T11:34:17.047Z,1136
2018-01-01T11:34:57.763Z,1140
2018-01-01T11:35:41.076Z,1116
2018-01-01T11:36:23.892Z,1004
2018-01-01T11:37:06.182Z,1116
2018-01-01T11:37:49.037Z,1132
2018-01-01T11:38:32.459Z,1240